sensor_id;sensor_type;location;lat;lon;timestamp;temperature;humidity
72936;DHT22;61085;48.804;9.228;2023-03-19T00:00:09;12.50;97.40
72936;DHT22;61085;48.804;9.228;2023-03-19T00:02:36;12.50;97.50
72936;DHT22;61085;48.804;9.228;2023-03-19T00:05:02;12.60;97.40
72936;DHT22;61085;48.804;9.228;2023-03-19T00:07:28;12.40;97.80
72936;DHT22;61085;48.804;9.228;2023-03-19T00:09:53;12.40;97.90
72936;DHT22;61085;48.804;9.228;2023-03-19T00:12:19;12.30;97.70
72936;DHT22;61085;48.804;9.228;2023-03-19T00:14:45;12.30;97.90
72936;DHT22;61085;48.804;9.228;2023-03-19T00:17:11;12.30;98.00
72936;DHT22;61085;48.804;9.228;2023-03-19T00:19:36;12.30;98.00
72936;DHT22;61085;48.804;9.228;2023-03-19T00:22:02;12.30;98.20
72936;DHT22;61085;48.804;9.228;2023-03-19T00:24:28;12.30;98.20
72936;DHT22;61085;48.804;9.228;2023-03-19T00:26:53;12.30;98.20
72936;DHT22;61085;48.804;9.228;2023-03-19T00:29:19;12.30;98.20
72936;DHT22;61085;48.804;9.228;2023-03-19T00:31:45;12.30;98.00
72936;DHT22;61085;48.804;9.228;2023-03-19T00:34:14;12.30;98.00
72936;DHT22;61085;48.804;9.228;2023-03-19T00:36:46;12.40;97.80
72936;DHT22;61085;48.804;9.228;2023-03-19T00:39:12;12.30;98.20
72936;DHT22;61085;48.804;9.228;2023-03-19T00:41:37;12.30;98.50
72936;DHT22;61085;48.804;9.228;2023-03-19T00:44:03;12.20;98.60
72936;DHT22;61085;48.804;9.228;2023-03-19T00:46:30;12.10;99.00
72936;DHT22;61085;48.804;9.228;2023-03-19T00:48:56;12.10;99.30
72936;DHT22;61085;48.804;9.228;2023-03-19T00:51:23;12.00;99.70
72936;DHT22;61085;48.804;9.228;2023-03-19T00:53:50;12.00;99.90
72936;DHT22;61085;48.804;9.228;2023-03-19T00:56:16;12.00;99.90
72936;DHT22;61085;48.804;9.228;2023-03-19T00:58:43;11.90;99.90
72936;DHT22;61085;48.804;9.228;2023-03-19T01:01:10;12.00;99.90
72936;DHT22;61085;48.804;9.228;2023-03-19T01:03:36;12.10;99.90
72936;DHT22;61085;48.804;9.228;2023-03-19T01:06:03;12.10;99.90
72936;DHT22;61085;48.804;9.228;2023-03-19T01:08:29;12.10;99.90
72936;DHT22;61085;48.804;9.228;2023-03-19T01:10:54;12.10;99.90
72936;DHT22;61085;48.804;9.228;2023-03-19T01:13:20;12.10;99.90
72936;DHT22;61085;48.804;9.228;2023-03-19T01:15:46;12.10;99.90
72936;DHT22;61085;48.804;9.228;2023-03-19T01:18:11;12.30;99.90
72936;DHT22;61085;48.804;9.228;2023-03-19T01:20:39;12.20;99.90
72936;DHT22;61085;48.804;9.228;2023-03-19T01:23:06;12.20;99.90
72936;DHT22;61085;48.804;9.228;2023-03-19T01:25:33;12.20;99.90
72936;DHT22;61085;48.804;9.228;2023-03-19T01:27:59;12.20;99.90
72936;DHT22;61085;48.804;9.228;2023-03-19T01:30:24;12.20;99.90
72936;DHT22;61085;48.804;9.228;2023-03-19T01:32:50;12.20;99.90
72936;DHT22;61085;48.804;9.228;2023-03-19T01:35:15;12.20;99.90
72936;DHT22;61085;48.804;9.228;2023-03-19T01:37:41;12.10;99.90
72936;DHT22;61085;48.804;9.228;2023-03-19T01:40:10;12.10;99.90
72936;DHT22;61085;48.804;9.228;2023-03-19T01:42:52;12.20;99.90
72936;DHT22;61085;48.804;9.228;2023-03-19T01:45:36;12.20;99.90
72936;DHT22;61085;48.804;9.228;2023-03-19T01:48:03;12.10;99.90
72936;DHT22;61085;48.804;9.228;2023-03-19T01:50:40;12.20;99.90
72936;DHT22;61085;48.804;9.228;2023-03-19T01:53:08;12.10;99.90
72936;DHT22;61085;48.804;9.228;2023-03-19T01:55:35;12.20;99.90
72936;DHT22;61085;48.804;9.228;2023-03-19T01:58:01;12.20;99.90
72936;DHT22;61085;48.804;9.228;2023-03-19T02:00:28;12.40;99.90
72936;DHT22;61085;48.804;9.228;2023-03-19T02:02:58;12.30;99.90
72936;DHT22;61085;48.804;9.228;2023-03-19T02:05:25;12.30;99.80
72936;DHT22;61085;48.804;9.228;2023-03-19T02:07:54;12.30;99.60
72936;DHT22;61085;48.804;9.228;2023-03-19T02:10:21;12.30;99.80
72936;DHT22;61085;48.804;9.228;2023-03-19T02:12:47;12.40;98.70
72936;DHT22;61085;48.804;9.228;2023-03-19T02:15:13;12.40;99.30
72936;DHT22;61085;48.804;9.228;2023-03-19T02:17:40;12.40;98.90
72936;DHT22;61085;48.804;9.228;2023-03-19T02:28:10;12.40;98.50
72936;DHT22;61085;48.804;9.228;2023-03-19T02:30:37;12.40;98.40
72936;DHT22;61085;48.804;9.228;2023-03-19T02:33:03;12.40;98.70
72936;DHT22;61085;48.804;9.228;2023-03-19T02:35:31;12.40;98.60
72936;DHT22;61085;48.804;9.228;2023-03-19T02:37:57;12.40;99.10
72936;DHT22;61085;48.804;9.228;2023-03-19T02:40:33;12.50;99.80
72936;DHT22;61085;48.804;9.228;2023-03-19T02:43:00;12.50;99.90
72936;DHT22;61085;48.804;9.228;2023-03-19T02:45:28;12.40;99.90
72936;DHT22;61085;48.804;9.228;2023-03-19T02:47:59;12.50;99.90
72936;DHT22;61085;48.804;9.228;2023-03-19T02:50:25;12.40;99.90
72936;DHT22;61085;48.804;9.228;2023-03-19T02:52:50;12.40;99.90
72936;DHT22;61085;48.804;9.228;2023-03-19T02:55:16;12.40;99.90
72936;DHT22;61085;48.804;9.228;2023-03-19T02:57:43;12.50;99.90
72936;DHT22;61085;48.804;9.228;2023-03-19T03:00:10;12.50;99.90
72936;DHT22;61085;48.804;9.228;2023-03-19T03:02:36;12.40;99.90
72936;DHT22;61085;48.804;9.228;2023-03-19T03:05:03;12.30;99.90
72936;DHT22;61085;48.804;9.228;2023-03-19T03:07:31;12.30;99.90
72936;DHT22;61085;48.804;9.228;2023-03-19T03:09:57;12.40;99.90
72936;DHT22;61085;48.804;9.228;2023-03-19T03:12:23;12.30;99.90
72936;DHT22;61085;48.804;9.228;2023-03-19T03:14:48;12.40;99.90
72936;DHT22;61085;48.804;9.228;2023-03-19T03:17:14;12.40;99.90
72936;DHT22;61085;48.804;9.228;2023-03-19T03:19:39;12.30;99.90
72936;DHT22;61085;48.804;9.228;2023-03-19T03:22:05;12.10;99.90
72936;DHT22;61085;48.804;9.228;2023-03-19T03:24:31;12.10;99.90
72936;DHT22;61085;48.804;9.228;2023-03-19T03:26:56;12.20;99.90
72936;DHT22;61085;48.804;9.228;2023-03-19T03:29:22;12.20;99.90
72936;DHT22;61085;48.804;9.228;2023-03-19T03:31:48;12.00;99.90
72936;DHT22;61085;48.804;9.228;2023-03-19T03:34:13;12.00;99.90
72936;DHT22;61085;48.804;9.228;2023-03-19T03:36:39;12.20;99.90
72936;DHT22;61085;48.804;9.228;2023-03-19T03:39:08;12.00;99.90
72936;DHT22;61085;48.804;9.228;2023-03-19T03:41:33;12.10;99.90
72936;DHT22;61085;48.804;9.228;2023-03-19T03:43:59;12.20;99.90
72936;DHT22;61085;48.804;9.228;2023-03-19T03:46:25;12.10;99.90
72936;DHT22;61085;48.804;9.228;2023-03-19T03:48:51;11.90;99.90
72936;DHT22;61085;48.804;9.228;2023-03-19T03:51:17;11.70;99.90
72936;DHT22;61085;48.804;9.228;2023-03-19T03:53:43;11.70;99.90
72936;DHT22;61085;48.804;9.228;2023-03-19T03:56:09;11.70;99.90
72936;DHT22;61085;48.804;9.228;2023-03-19T03:58:35;11.70;99.90
72936;DHT22;61085;48.804;9.228;2023-03-19T04:01:00;11.60;99.90
72936;DHT22;61085;48.804;9.228;2023-03-19T04:03:26;11.60;99.90
72936;DHT22;61085;48.804;9.228;2023-03-19T04:05:52;11.50;99.90
72936;DHT22;61085;48.804;9.228;2023-03-19T04:08:17;11.60;99.90
72936;DHT22;61085;48.804;9.228;2023-03-19T04:10:43;11.60;99.90
72936;DHT22;61085;48.804;9.228;2023-03-19T04:13:10;11.50;99.90
72936;DHT22;61085;48.804;9.228;2023-03-19T04:15:36;11.60;99.90
72936;DHT22;61085;48.804;9.228;2023-03-19T04:18:02;11.60;99.90
72936;DHT22;61085;48.804;9.228;2023-03-19T04:20:28;11.50;99.90
72936;DHT22;61085;48.804;9.228;2023-03-19T04:22:54;11.40;99.90
72936;DHT22;61085;48.804;9.228;2023-03-19T04:25:20;11.40;99.90
72936;DHT22;61085;48.804;9.228;2023-03-19T04:27:46;11.30;99.90
72936;DHT22;61085;48.804;9.228;2023-03-19T04:30:12;11.30;99.90
72936;DHT22;61085;48.804;9.228;2023-03-19T04:32:38;11.20;99.90
72936;DHT22;61085;48.804;9.228;2023-03-19T04:35:04;11.20;99.90
72936;DHT22;61085;48.804;9.228;2023-03-19T04:37:30;11.10;99.90
72936;DHT22;61085;48.804;9.228;2023-03-19T04:39:56;11.10;99.90
72936;DHT22;61085;48.804;9.228;2023-03-19T04:42:21;11.10;99.90
72936;DHT22;61085;48.804;9.228;2023-03-19T04:44:47;11.10;99.90
72936;DHT22;61085;48.804;9.228;2023-03-19T04:47:13;11.00;99.90
72936;DHT22;61085;48.804;9.228;2023-03-19T04:49:39;11.00;99.90
72936;DHT22;61085;48.804;9.228;2023-03-19T04:52:06;11.00;99.90
72936;DHT22;61085;48.804;9.228;2023-03-19T04:54:31;11.10;99.90
72936;DHT22;61085;48.804;9.228;2023-03-19T04:56:57;11.10;99.90
72936;DHT22;61085;48.804;9.228;2023-03-19T04:59:23;11.20;99.90
72936;DHT22;61085;48.804;9.228;2023-03-19T05:01:48;11.10;99.90
72936;DHT22;61085;48.804;9.228;2023-03-19T05:04:14;11.10;99.90
72936;DHT22;61085;48.804;9.228;2023-03-19T05:06:39;11.20;99.90
72936;DHT22;61085;48.804;9.228;2023-03-19T05:09:06;11.30;99.90
72936;DHT22;61085;48.804;9.228;2023-03-19T05:11:32;11.30;99.90
72936;DHT22;61085;48.804;9.228;2023-03-19T05:13:58;11.30;99.90
72936;DHT22;61085;48.804;9.228;2023-03-19T05:16:23;11.30;99.90
72936;DHT22;61085;48.804;9.228;2023-03-19T05:18:49;11.30;99.90
72936;DHT22;61085;48.804;9.228;2023-03-19T05:21:15;11.40;99.90
72936;DHT22;61085;48.804;9.228;2023-03-19T05:23:41;11.40;99.90
72936;DHT22;61085;48.804;9.228;2023-03-19T05:26:07;11.30;99.90
72936;DHT22;61085;48.804;9.228;2023-03-19T05:28:34;11.40;99.90
72936;DHT22;61085;48.804;9.228;2023-03-19T05:31:00;11.40;99.90
72936;DHT22;61085;48.804;9.228;2023-03-19T05:33:27;11.30;99.90
72936;DHT22;61085;48.804;9.228;2023-03-19T05:35:53;11.20;99.90
72936;DHT22;61085;48.804;9.228;2023-03-19T05:38:18;11.20;99.90
72936;DHT22;61085;48.804;9.228;2023-03-19T05:40:44;11.10;99.90
72936;DHT22;61085;48.804;9.228;2023-03-19T05:43:10;11.20;99.90
72936;DHT22;61085;48.804;9.228;2023-03-19T05:45:36;11.20;99.90
72936;DHT22;61085;48.804;9.228;2023-03-19T05:48:03;11.40;99.90
72936;DHT22;61085;48.804;9.228;2023-03-19T05:50:29;11.40;99.90
72936;DHT22;61085;48.804;9.228;2023-03-19T05:52:56;11.30;99.90
72936;DHT22;61085;48.804;9.228;2023-03-19T05:55:22;11.30;99.90
72936;DHT22;61085;48.804;9.228;2023-03-19T05:57:47;11.30;99.90
72936;DHT22;61085;48.804;9.228;2023-03-19T06:00:13;11.60;99.90
72936;DHT22;61085;48.804;9.228;2023-03-19T06:02:40;11.20;99.90
72936;DHT22;61085;48.804;9.228;2023-03-19T06:05:08;11.20;99.90
72936;DHT22;61085;48.804;9.228;2023-03-19T06:07:34;11.20;99.90
72936;DHT22;61085;48.804;9.228;2023-03-19T06:10:00;11.30;99.90
72936;DHT22;61085;48.804;9.228;2023-03-19T06:12:26;11.10;99.90
72936;DHT22;61085;48.804;9.228;2023-03-19T06:14:52;11.20;99.90
72936;DHT22;61085;48.804;9.228;2023-03-19T06:17:17;11.30;99.90
72936;DHT22;61085;48.804;9.228;2023-03-19T06:19:45;11.30;99.90
72936;DHT22;61085;48.804;9.228;2023-03-19T06:22:12;11.50;99.90
72936;DHT22;61085;48.804;9.228;2023-03-19T06:24:38;11.40;99.90
72936;DHT22;61085;48.804;9.228;2023-03-19T06:27:03;11.50;99.90
72936;DHT22;61085;48.804;9.228;2023-03-19T06:29:29;11.50;99.90
72936;DHT22;61085;48.804;9.228;2023-03-19T06:31:55;11.50;99.90
72936;DHT22;61085;48.804;9.228;2023-03-19T06:34:21;11.60;99.90
72936;DHT22;61085;48.804;9.228;2023-03-19T06:36:47;11.60;99.90
72936;DHT22;61085;48.804;9.228;2023-03-19T06:39:12;11.60;99.90
72936;DHT22;61085;48.804;9.228;2023-03-19T06:41:38;11.60;99.90
72936;DHT22;61085;48.804;9.228;2023-03-19T06:44:04;11.60;99.90
72936;DHT22;61085;48.804;9.228;2023-03-19T06:46:29;11.40;99.90
72936;DHT22;61085;48.804;9.228;2023-03-19T06:48:56;11.60;99.90
72936;DHT22;61085;48.804;9.228;2023-03-19T06:51:22;11.60;99.90
72936;DHT22;61085;48.804;9.228;2023-03-19T06:53:48;11.60;99.90
72936;DHT22;61085;48.804;9.228;2023-03-19T06:56:13;11.70;99.90
72936;DHT22;61085;48.804;9.228;2023-03-19T06:58:39;11.80;99.90
72936;DHT22;61085;48.804;9.228;2023-03-19T07:01:05;11.70;99.90
72936;DHT22;61085;48.804;9.228;2023-03-19T07:03:30;11.80;99.90
72936;DHT22;61085;48.804;9.228;2023-03-19T07:05:56;12.00;99.90
72936;DHT22;61085;48.804;9.228;2023-03-19T07:08:22;12.00;99.90
72936;DHT22;61085;48.804;9.228;2023-03-19T07:10:47;12.00;99.90
72936;DHT22;61085;48.804;9.228;2023-03-19T07:13:13;11.80;99.90
72936;DHT22;61085;48.804;9.228;2023-03-19T07:15:39;11.70;99.90
72936;DHT22;61085;48.804;9.228;2023-03-19T07:18:04;11.70;99.90
72936;DHT22;61085;48.804;9.228;2023-03-19T07:20:30;11.70;99.90
72936;DHT22;61085;48.804;9.228;2023-03-19T07:22:56;11.70;99.90
72936;DHT22;61085;48.804;9.228;2023-03-19T07:25:22;11.80;99.90
72936;DHT22;61085;48.804;9.228;2023-03-19T07:27:47;11.70;99.90
72936;DHT22;61085;48.804;9.228;2023-03-19T07:30:13;11.80;99.90
72936;DHT22;61085;48.804;9.228;2023-03-19T07:32:40;11.90;99.90
72936;DHT22;61085;48.804;9.228;2023-03-19T07:35:07;12.00;99.90
72936;DHT22;61085;48.804;9.228;2023-03-19T07:37:34;11.90;99.90
72936;DHT22;61085;48.804;9.228;2023-03-19T07:40:00;12.00;99.90
72936;DHT22;61085;48.804;9.228;2023-03-19T07:42:25;12.10;99.90
72936;DHT22;61085;48.804;9.228;2023-03-19T07:44:51;12.10;99.90
72936;DHT22;61085;48.804;9.228;2023-03-19T07:47:17;12.00;99.90
72936;DHT22;61085;48.804;9.228;2023-03-19T07:49:42;12.00;99.90
72936;DHT22;61085;48.804;9.228;2023-03-19T07:52:09;12.10;99.90
72936;DHT22;61085;48.804;9.228;2023-03-19T07:54:34;12.10;99.90
72936;DHT22;61085;48.804;9.228;2023-03-19T07:57:01;12.10;99.90
72936;DHT22;61085;48.804;9.228;2023-03-19T07:59:26;12.10;99.90
72936;DHT22;61085;48.804;9.228;2023-03-19T08:01:52;12.20;99.90
72936;DHT22;61085;48.804;9.228;2023-03-19T08:04:17;12.40;99.90
72936;DHT22;61085;48.804;9.228;2023-03-19T08:06:43;12.50;99.90
72936;DHT22;61085;48.804;9.228;2023-03-19T08:09:09;12.40;99.90
72936;DHT22;61085;48.804;9.228;2023-03-19T08:11:35;12.30;99.90
72936;DHT22;61085;48.804;9.228;2023-03-19T08:14:01;12.40;99.90
72936;DHT22;61085;48.804;9.228;2023-03-19T08:16:27;12.30;99.90
72936;DHT22;61085;48.804;9.228;2023-03-19T08:18:52;12.40;99.90
72936;DHT22;61085;48.804;9.228;2023-03-19T08:21:18;12.30;99.90
72936;DHT22;61085;48.804;9.228;2023-03-19T08:23:44;12.30;99.90
72936;DHT22;61085;48.804;9.228;2023-03-19T08:26:09;12.40;99.90
72936;DHT22;61085;48.804;9.228;2023-03-19T08:28:35;12.60;99.90
72936;DHT22;61085;48.804;9.228;2023-03-19T08:31:10;12.70;99.90
72936;DHT22;61085;48.804;9.228;2023-03-19T08:33:36;12.80;99.90
72936;DHT22;61085;48.804;9.228;2023-03-19T08:36:09;12.80;99.90
72936;DHT22;61085;48.804;9.228;2023-03-19T08:38:35;12.90;99.90
72936;DHT22;61085;48.804;9.228;2023-03-19T08:41:01;12.90;99.90
72936;DHT22;61085;48.804;9.228;2023-03-19T08:43:29;12.70;99.90
72936;DHT22;61085;48.804;9.228;2023-03-19T08:45:56;12.80;99.90
72936;DHT22;61085;48.804;9.228;2023-03-19T08:48:21;12.80;99.90
72936;DHT22;61085;48.804;9.228;2023-03-19T08:50:58;12.90;99.90
72936;DHT22;61085;48.804;9.228;2023-03-19T08:53:24;12.90;99.90
72936;DHT22;61085;48.804;9.228;2023-03-19T08:55:59;13.00;99.90
72936;DHT22;61085;48.804;9.228;2023-03-19T08:58:25;13.00;99.90
72936;DHT22;61085;48.804;9.228;2023-03-19T09:00:51;13.10;99.90
72936;DHT22;61085;48.804;9.228;2023-03-19T09:03:18;13.30;99.90
72936;DHT22;61085;48.804;9.228;2023-03-19T09:05:44;13.40;99.90
72936;DHT22;61085;48.804;9.228;2023-03-19T09:08:10;13.60;99.90
72936;DHT22;61085;48.804;9.228;2023-03-19T09:10:35;13.70;99.90
72936;DHT22;61085;48.804;9.228;2023-03-19T09:13:01;13.80;99.90
72936;DHT22;61085;48.804;9.228;2023-03-19T09:15:27;14.00;99.90
72936;DHT22;61085;48.804;9.228;2023-03-19T09:17:53;14.30;99.90
72936;DHT22;61085;48.804;9.228;2023-03-19T09:20:18;14.50;99.90
72936;DHT22;61085;48.804;9.228;2023-03-19T09:22:44;14.40;99.90
72936;DHT22;61085;48.804;9.228;2023-03-19T09:25:10;14.50;99.90
72936;DHT22;61085;48.804;9.228;2023-03-19T09:27:35;14.90;99.90
72936;DHT22;61085;48.804;9.228;2023-03-19T09:30:01;15.20;99.90
72936;DHT22;61085;48.804;9.228;2023-03-19T09:32:28;15.70;99.80
72936;DHT22;61085;48.804;9.228;2023-03-19T09:34:54;15.80;97.90
72936;DHT22;61085;48.804;9.228;2023-03-19T09:37:20;16.00;97.00
72936;DHT22;61085;48.804;9.228;2023-03-19T09:39:48;16.00;96.50
72936;DHT22;61085;48.804;9.228;2023-03-19T09:45:01;15.70;96.30
72936;DHT22;61085;48.804;9.228;2023-03-19T09:50:02;15.90;96.70
72936;DHT22;61085;48.804;9.228;2023-03-19T09:57:54;16.10;95.30
72936;DHT22;61085;48.804;9.228;2023-03-19T10:00:21;16.40;94.60
72936;DHT22;61085;48.804;9.228;2023-03-19T10:11:35;16.50;92.30
72936;DHT22;61085;48.804;9.228;2023-03-19T10:14:22;16.30;91.70
72936;DHT22;61085;48.804;9.228;2023-03-19T10:16:55;16.20;92.10
72936;DHT22;61085;48.804;9.228;2023-03-19T10:19:35;16.20;91.80
72936;DHT22;61085;48.804;9.228;2023-03-19T10:22:05;16.20;91.80
72936;DHT22;61085;48.804;9.228;2023-03-19T10:24:38;16.10;91.80
72936;DHT22;61085;48.804;9.228;2023-03-19T10:27:13;16.10;92.50
72936;DHT22;61085;48.804;9.228;2023-03-19T10:29:39;16.30;91.30
72936;DHT22;61085;48.804;9.228;2023-03-19T10:34:35;16.40;88.70
72936;DHT22;61085;48.804;9.228;2023-03-19T10:37:23;16.60;90.30
72936;DHT22;61085;48.804;9.228;2023-03-19T10:39:54;16.80;88.00
72936;DHT22;61085;48.804;9.228;2023-03-19T10:42:25;17.10;86.90
72936;DHT22;61085;48.804;9.228;2023-03-19T10:47:44;17.10;84.70
72936;DHT22;61085;48.804;9.228;2023-03-19T10:50:18;17.20;82.60
72936;DHT22;61085;48.804;9.228;2023-03-19T10:52:45;17.20;82.20
72936;DHT22;61085;48.804;9.228;2023-03-19T10:55:22;17.50;82.30
72936;DHT22;61085;48.804;9.228;2023-03-19T10:57:50;17.70;79.20
72936;DHT22;61085;48.804;9.228;2023-03-19T11:00:23;17.60;75.80
72936;DHT22;61085;48.804;9.228;2023-03-19T11:02:51;17.60;77.10
72936;DHT22;61085;48.804;9.228;2023-03-19T11:07:53;17.60;68.30
72936;DHT22;61085;48.804;9.228;2023-03-19T11:10:20;17.60;69.60
72936;DHT22;61085;48.804;9.228;2023-03-19T11:12:59;17.50;68.30
72936;DHT22;61085;48.804;9.228;2023-03-19T11:15:38;17.80;70.60
72936;DHT22;61085;48.804;9.228;2023-03-19T11:21:06;18.30;63.30
72936;DHT22;61085;48.804;9.228;2023-03-19T11:23:40;18.50;62.30
72936;DHT22;61085;48.804;9.228;2023-03-19T11:26:06;18.50;56.40
72936;DHT22;61085;48.804;9.228;2023-03-19T11:28:36;18.50;54.70
72936;DHT22;61085;48.804;9.228;2023-03-19T11:31:16;18.40;54.70
72936;DHT22;61085;48.804;9.228;2023-03-19T11:37:14;18.60;53.10
72936;DHT22;61085;48.804;9.228;2023-03-19T11:39:51;18.50;53.10
72936;DHT22;61085;48.804;9.228;2023-03-19T12:00:33;19.30;56.20
72936;DHT22;61085;48.804;9.228;2023-03-19T12:05:59;19.30;53.60
72936;DHT22;61085;48.804;9.228;2023-03-19T12:08:30;19.20;51.70
72936;DHT22;61085;48.804;9.228;2023-03-19T12:13:53;19.20;50.00
72936;DHT22;61085;48.804;9.228;2023-03-19T12:22:01;19.50;48.00
72936;DHT22;61085;48.804;9.228;2023-03-19T12:32:51;18.80;49.50
72936;DHT22;61085;48.804;9.228;2023-03-19T12:35:30;18.90;49.70
72936;DHT22;61085;48.804;9.228;2023-03-19T12:41:23;19.00;51.00
72936;DHT22;61085;48.804;9.228;2023-03-19T12:43:57;19.10;51.50
72936;DHT22;61085;48.804;9.228;2023-03-19T12:46:42;19.20;50.40
72936;DHT22;61085;48.804;9.228;2023-03-19T12:49:22;19.10;48.50
72936;DHT22;61085;48.804;9.228;2023-03-19T12:51:58;19.00;51.20
72936;DHT22;61085;48.804;9.228;2023-03-19T12:54:30;19.10;51.70
72936;DHT22;61085;48.804;9.228;2023-03-19T12:59:57;19.10;51.90
72936;DHT22;61085;48.804;9.228;2023-03-19T13:02:40;19.00;51.50
72936;DHT22;61085;48.804;9.228;2023-03-19T13:10:31;18.30;57.40
72936;DHT22;61085;48.804;9.228;2023-03-19T13:12:57;18.00;59.50
72936;DHT22;61085;48.804;9.228;2023-03-19T13:15:51;18.00;60.90
72936;DHT22;61085;48.804;9.228;2023-03-19T13:18:35;17.70;62.00
72936;DHT22;61085;48.804;9.228;2023-03-19T13:23:33;17.20;76.10
72936;DHT22;61085;48.804;9.228;2023-03-19T13:26:00;16.90;83.10
72936;DHT22;61085;48.804;9.228;2023-03-19T13:28:31;16.70;89.30
72936;DHT22;61085;48.804;9.228;2023-03-19T13:31:16;16.50;94.50
72936;DHT22;61085;48.804;9.228;2023-03-19T13:34:00;15.80;98.90
72936;DHT22;61085;48.804;9.228;2023-03-19T13:36:28;14.80;99.90
72936;DHT22;61085;48.804;9.228;2023-03-19T13:38:59;14.40;99.90
72936;DHT22;61085;48.804;9.228;2023-03-19T13:43:56;14.70;99.90
72936;DHT22;61085;48.804;9.228;2023-03-19T13:46:28;14.80;99.90
72936;DHT22;61085;48.804;9.228;2023-03-19T13:49:08;14.90;99.90
72936;DHT22;61085;48.804;9.228;2023-03-19T13:51:34;14.90;99.90
72936;DHT22;61085;48.804;9.228;2023-03-19T14:02:00;15.20;99.90
72936;DHT22;61085;48.804;9.228;2023-03-19T14:04:36;15.10;99.90
72936;DHT22;61085;48.804;9.228;2023-03-19T14:09:48;15.10;99.90
72936;DHT22;61085;48.804;9.228;2023-03-19T14:14:47;15.40;99.90
72936;DHT22;61085;48.804;9.228;2023-03-19T14:17:14;15.60;99.90
72936;DHT22;61085;48.804;9.228;2023-03-19T14:19:41;15.60;99.90
72936;DHT22;61085;48.804;9.228;2023-03-19T14:22:09;15.60;99.90
72936;DHT22;61085;48.804;9.228;2023-03-19T14:24:54;15.80;99.90
72936;DHT22;61085;48.804;9.228;2023-03-19T14:27:34;15.70;99.90
72936;DHT22;61085;48.804;9.228;2023-03-19T14:30:07;15.60;99.90
72936;DHT22;61085;48.804;9.228;2023-03-19T14:32:37;15.70;99.90
72936;DHT22;61085;48.804;9.228;2023-03-19T14:35:09;15.80;99.90
72936;DHT22;61085;48.804;9.228;2023-03-19T14:40:07;16.00;99.90
72936;DHT22;61085;48.804;9.228;2023-03-19T14:53:42;16.20;99.90
72936;DHT22;61085;48.804;9.228;2023-03-19T14:56:18;16.20;99.90
72936;DHT22;61085;48.804;9.228;2023-03-19T14:58:50;16.10;99.70
72936;DHT22;61085;48.804;9.228;2023-03-19T15:01:17;16.00;99.90
72936;DHT22;61085;48.804;9.228;2023-03-19T15:03:43;16.00;99.90
72936;DHT22;61085;48.804;9.228;2023-03-19T15:06:12;16.00;99.90
72936;DHT22;61085;48.804;9.228;2023-03-19T15:08:40;15.90;99.90
72936;DHT22;61085;48.804;9.228;2023-03-19T15:14:22;15.80;99.90
72936;DHT22;61085;48.804;9.228;2023-03-19T15:19:28;15.50;99.90
72936;DHT22;61085;48.804;9.228;2023-03-19T15:22:17;15.30;99.90
72936;DHT22;61085;48.804;9.228;2023-03-19T15:24:44;15.20;99.90
72936;DHT22;61085;48.804;9.228;2023-03-19T15:27:21;15.10;99.30
72936;DHT22;61085;48.804;9.228;2023-03-19T15:29:47;15.00;98.90
72936;DHT22;61085;48.804;9.228;2023-03-19T15:32:33;14.90;98.90
72936;DHT22;61085;48.804;9.228;2023-03-19T15:34:59;15.00;99.40
72936;DHT22;61085;48.804;9.228;2023-03-19T15:37:26;14.90;99.90
72936;DHT22;61085;48.804;9.228;2023-03-19T15:39:54;15.10;99.90
72936;DHT22;61085;48.804;9.228;2023-03-19T15:42:22;15.10;97.90
72936;DHT22;61085;48.804;9.228;2023-03-19T15:45:03;15.00;97.80
72936;DHT22;61085;48.804;9.228;2023-03-19T15:47:39;14.80;98.70
72936;DHT22;61085;48.804;9.228;2023-03-19T15:50:10;14.90;99.90
72936;DHT22;61085;48.804;9.228;2023-03-19T15:52:40;14.90;99.50
72936;DHT22;61085;48.804;9.228;2023-03-19T15:55:07;15.00;98.60
72936;DHT22;61085;48.804;9.228;2023-03-19T15:57:35;14.90;98.90
72936;DHT22;61085;48.804;9.228;2023-03-19T16:00:03;14.90;98.80
72936;DHT22;61085;48.804;9.228;2023-03-19T16:02:32;14.80;99.70
72936;DHT22;61085;48.804;9.228;2023-03-19T16:04:59;14.90;99.90
72936;DHT22;61085;48.804;9.228;2023-03-19T16:10:17;14.90;99.90
72936;DHT22;61085;48.804;9.228;2023-03-19T16:12:48;14.90;99.90
72936;DHT22;61085;48.804;9.228;2023-03-19T16:15:21;14.90;99.90
72936;DHT22;61085;48.804;9.228;2023-03-19T16:17:48;14.90;99.90
72936;DHT22;61085;48.804;9.228;2023-03-19T16:20:14;14.50;99.90
72936;DHT22;61085;48.804;9.228;2023-03-19T16:22:40;14.60;99.90
72936;DHT22;61085;48.804;9.228;2023-03-19T16:25:17;14.60;99.90
72936;DHT22;61085;48.804;9.228;2023-03-19T16:27:44;14.50;99.90
72936;DHT22;61085;48.804;9.228;2023-03-19T16:30:22;14.30;99.90
72936;DHT22;61085;48.804;9.228;2023-03-19T16:33:02;14.10;99.90
72936;DHT22;61085;48.804;9.228;2023-03-19T16:35:31;14.10;99.90
72936;DHT22;61085;48.804;9.228;2023-03-19T16:38:17;14.00;99.90
72936;DHT22;61085;48.804;9.228;2023-03-19T16:40:47;13.80;99.90
72936;DHT22;61085;48.804;9.228;2023-03-19T16:45:41;13.70;99.90
72936;DHT22;61085;48.804;9.228;2023-03-19T16:48:07;13.60;99.90
72936;DHT22;61085;48.804;9.228;2023-03-19T16:50:38;13.50;99.90
72936;DHT22;61085;48.804;9.228;2023-03-19T16:53:22;13.50;99.90
72936;DHT22;61085;48.804;9.228;2023-03-19T16:55:48;13.40;99.90
72936;DHT22;61085;48.804;9.228;2023-03-19T16:58:17;13.30;99.90
72936;DHT22;61085;48.804;9.228;2023-03-19T17:00:44;13.20;99.90
72936;DHT22;61085;48.804;9.228;2023-03-19T17:03:12;13.00;99.90
72936;DHT22;61085;48.804;9.228;2023-03-19T17:05:38;12.80;99.90
72936;DHT22;61085;48.804;9.228;2023-03-19T17:08:04;12.50;99.90
72936;DHT22;61085;48.804;9.228;2023-03-19T17:10:30;12.40;99.90
72936;DHT22;61085;48.804;9.228;2023-03-19T17:12:57;12.40;99.90
72936;DHT22;61085;48.804;9.228;2023-03-19T17:15:32;12.30;99.90
72936;DHT22;61085;48.804;9.228;2023-03-19T17:18:03;12.40;99.90
72936;DHT22;61085;48.804;9.228;2023-03-19T17:20:36;12.60;99.90
72936;DHT22;61085;48.804;9.228;2023-03-19T17:23:10;12.70;99.90
72936;DHT22;61085;48.804;9.228;2023-03-19T17:25:42;12.70;99.90
72936;DHT22;61085;48.804;9.228;2023-03-19T17:28:08;12.60;99.90
72936;DHT22;61085;48.804;9.228;2023-03-19T17:30:34;12.60;99.90
72936;DHT22;61085;48.804;9.228;2023-03-19T17:33:00;12.50;99.90
72936;DHT22;61085;48.804;9.228;2023-03-19T17:35:25;12.40;99.90
72936;DHT22;61085;48.804;9.228;2023-03-19T17:37:57;12.50;99.90
72936;DHT22;61085;48.804;9.228;2023-03-19T17:40:25;12.50;99.90
72936;DHT22;61085;48.804;9.228;2023-03-19T17:42:54;12.60;99.90
72936;DHT22;61085;48.804;9.228;2023-03-19T17:45:26;12.80;99.90
72936;DHT22;61085;48.804;9.228;2023-03-19T17:47:55;12.60;99.90
72936;DHT22;61085;48.804;9.228;2023-03-19T17:50:25;12.70;99.90